Time;durP1;ratioP1;P1;durP2;ratioP2;P2;SDS_P1;SDS_P2;PMS_P1;PMS_P2;Temp;Humidity;BMP_temperature;BMP_pressure;BME280_temperature;BME280_humidity;BME280_pressure;Samples;Min_cycle;Max_cycle;Signal;HPM_P1;HPM_P2
2023/05/28 00:01:58;;;;;;;20.00;9.17;;;15.30;1.00;;;;;;5093292;28;20223;-70
2023/05/28 00:04:24;;;;;;;17.03;8.80;;;15.30;1.00;;;;;;5093538;28;20687;-71
2023/05/28 00:06:52;;;;;;;18.00;9.00;;;15.20;1.00;;;;;;5093575;28;20289;-70
2023/05/28 00:09:19;;;;;;;22.30;9.87;;;15.10;1.00;;;;;;5093256;28;20645;-70
2023/05/28 00:11:45;;;;;;;13.70;8.73;;;15.00;1.00;;;;;;5093312;28;20177;-70
2023/05/28 00:14:11;;;;;;;18.67;9.40;;;15.00;1.00;;;;;;5093446;28;20641;-71
2023/05/28 00:16:37;;;;;;;19.20;9.73;;;14.90;1.00;;;;;;5093161;28;20168;-71
2023/05/28 00:19:03;;;;;;;20.33;10.07;;;14.90;1.00;;;;;;5093236;28;20168;-70
2023/05/28 00:21:32;;;;;;;24.90;9.57;;;14.90;1.00;;;;;;5093055;28;20658;-71
2023/05/28 00:23:58;;;;;;;18.40;9.83;;;15.00;1.00;;;;;;5093301;28;20175;-71
2023/05/28 00:26:25;;;;;;;24.07;10.30;;;15.00;1.00;;;;;;5093209;28;20178;-71
2023/05/28 00:28:50;;;;;;;22.90;9.73;;;14.90;1.00;;;;;;5093274;28;20180;-70
2023/05/28 00:31:16;;;;;;;20.93;9.37;;;14.90;1.00;;;;;;5093033;28;20251;-69
2023/05/28 00:33:43;;;;;;;21.93;9.83;;;14.80;1.00;;;;;;5092838;28;20299;-69
2023/05/28 00:36:10;;;;;;;23.43;10.30;;;14.80;3.10;;;;;;5093246;28;20526;-70
2023/05/28 00:38:36;;;;;;;22.07;10.30;;;14.80;6.00;;;;;;5092969;28;20176;-71
2023/05/28 00:41:02;;;;;;;16.87;9.50;;;14.80;8.10;;;;;;5092996;28;20207;-71
2023/05/28 00:43:27;;;;;;;16.43;9.63;;;14.80;9.20;;;;;;5093410;28;20216;-71
2023/05/28 00:45:58;;;;;;;18.83;9.30;;;14.80;10.30;;;;;;5092754;28;20164;-69
2023/05/28 00:48:25;;;;;;;16.67;9.57;;;14.80;11.10;;;;;;5092927;28;20702;-70
2023/05/28 00:50:51;;;;;;;16.43;9.80;;;14.80;12.50;;;;;;5095647;28;20657;-70
2023/05/28 00:53:17;;;;;;;25.00;10.27;;;14.70;13.00;;;;;;5097193;28;20186;-69
2023/05/28 00:55:44;;;;;;;20.03;9.87;;;14.70;16.40;;;;;;5097192;28;20180;-70
2023/05/28 00:58:11;;;;;;;17.63;10.50;;;14.60;19.50;;;;;;5096865;28;20250;-70
2023/05/28 01:00:37;;;;;;;17.70;10.17;;;14.60;19.30;;;;;;5096738;28;20175;-71
2023/05/28 01:03:05;;;;;;;19.10;9.80;;;14.50;21.70;;;;;;5096777;28;20214;-70
2023/05/28 01:05:31;;;;;;;18.63;9.67;;;14.60;23.00;;;;;;5097127;28;20179;-71
2023/05/28 01:08:02;;;;;;;18.50;10.30;;;14.50;27.90;;;;;;5096777;28;20188;-70
2023/05/28 01:10:29;;;;;;;17.80;10.73;;;14.40;31.70;;;;;;5096853;28;20168;-69
2023/05/28 01:12:56;;;;;;;22.47;10.37;;;14.30;37.80;;;;;;5096853;28;20176;-69
2023/05/28 01:15:23;;;;;;;17.43;10.47;;;14.30;41.50;;;;;;5096454;28;20176;-70
2023/05/28 01:17:49;;;;;;;18.00;11.37;;;14.20;47.60;;;;;;5096599;28;20669;-70
2023/05/28 01:20:15;;;;;;;20.87;11.03;;;14.10;54.70;;;;;;5096699;28;20180;-70
2023/05/28 01:22:50;;;;;;;21.03;11.80;;;14.10;57.90;;;;;;5096666;28;20319;-70
2023/05/28 01:25:17;;;;;;;21.87;11.40;;;14.10;61.40;;;;;;5097004;28;20243;-70
2023/05/28 01:27:42;;;;;;;25.30;11.77;;;14.10;62.10;;;;;;5096659;28;20209;-70
2023/05/28 01:30:09;;;;;;;18.90;11.30;;;14.10;65.80;;;;;;5096101;28;20250;-70
2023/05/28 01:32:36;;;;;;;22.80;12.10;;;14.10;72.10;;;;;;5096193;28;20220;-69
2023/05/28 01:35:03;;;;;;;20.27;11.10;;;14.00;80.00;;;;;;5096244;28;20246;-69
2023/05/28 01:37:30;;;;;;;28.73;12.13;;;14.00;83.80;;;;;;5096824;28;20192;-68
2023/05/28 01:39:57;;;;;;;23.10;11.60;;;13.90;89.10;;;;;;5096197;28;20235;-70
2023/05/28 01:42:23;;;;;;;21.93;12.23;;;14.00;92.40;;;;;;5096063;28;20211;-71
2023/05/28 01:44:50;;;;;;;19.87;11.43;;;13.90;93.60;;;;;;5096189;28;20182;-69
2023/05/28 01:47:16;;;;;;;20.37;11.27;;;13.90;99.30;;;;;;5096079;28;20631;-70
2023/05/28 01:49:42;;;;;;;21.43;12.60;;;13.90;99.90;;;;;;5095857;28;20175;-69
2023/05/28 01:52:08;;;;;;;27.63;13.20;;;13.80;99.90;;;;;;5095992;28;20289;-69
2023/05/28 01:54:34;;;;;;;24.63;13.07;;;13.70;99.90;;;;;;5095986;28;20217;-69
2023/05/28 01:57:01;;;;;;;25.17;12.90;;;13.70;99.90;;;;;;5095504;28;20630;-69
2023/05/28 01:59:26;;;;;;;20.30;12.50;;;13.60;99.90;;;;;;5095752;28;20171;-70
2023/05/28 02:01:52;;;;;;;26.63;13.77;;;13.60;99.90;;;;;;5094980;28;20286;-70
2023/05/28 02:04:17;;;;;;;29.70;13.50;;;13.60;99.90;;;;;;5094335;28;20630;-70
2023/05/28 02:06:46;;;;;;;28.23;14.83;;;13.70;99.90;;;;;;5095826;28;20182;-69
2023/05/28 02:09:11;;;;;;;23.80;14.10;;;13.70;99.90;;;;;;5095663;28;20554;-71
2023/05/28 02:11:37;;;;;;;26.70;13.33;;;13.60;99.90;;;;;;5095358;28;20297;-71
2023/05/28 02:14:04;;;;;;;22.70;14.00;;;13.50;99.90;;;;;;5095678;28;20172;-69
2023/05/28 02:16:30;;;;;;;25.20;14.00;;;13.40;99.90;;;;;;5095628;28;20172;-70
2023/05/28 02:18:56;;;;;;;25.93;14.97;;;13.40;99.90;;;;;;5095331;28;20246;-71
2023/05/28 02:21:22;;;;;;;24.90;14.27;;;13.40;99.90;;;;;;5095713;28;20564;-70
2023/05/28 02:23:49;;;;;;;24.63;14.03;;;13.40;99.90;;;;;;5095525;28;20257;-70
2023/05/28 02:26:15;;;;;;;22.77;14.67;;;13.30;99.90;;;;;;5095113;28;20176;-70
2023/05/28 02:28:43;;;;;;;23.60;14.20;;;13.30;99.90;;;;;;5095348;28;20183;-70
2023/05/28 02:31:09;;;;;;;26.43;13.90;;;13.30;99.90;;;;;;5095523;28;20187;-70
2023/05/28 02:33:36;;;;;;;28.93;14.33;;;13.20;99.90;;;;;;5094596;28;20232;-70
2023/05/28 02:36:02;;;;;;;26.00;14.43;;;13.20;99.90;;;;;;5095193;28;20180;-70
2023/05/28 02:38:27;;;;;;;27.70;14.67;;;13.20;99.90;;;;;;5095095;28;20202;-70
2023/05/28 02:40:53;;;;;;;29.53;14.27;;;13.10;99.90;;;;;;5094570;28;20272;-69
2023/05/28 02:43:19;;;;;;;24.30;14.63;;;13.10;99.90;;;;;;5095087;28;20532;-70
2023/05/28 02:45:45;;;;;;;26.73;14.73;;;13.10;99.90;;;;;;5095032;28;20524;-69
2023/05/28 02:48:10;;;;;;;28.00;14.67;;;13.10;99.90;;;;;;5094803;28;20229;-69
2023/05/28 02:50:36;;;;;;;26.37;15.13;;;13.10;99.90;;;;;;5094897;28;20498;-70
2023/05/28 02:53:02;;;;;;;26.63;15.23;;;13.10;99.90;;;;;;5094744;28;20247;-68
2023/05/28 02:55:28;;;;;;;24.30;15.03;;;13.10;99.90;;;;;;5094346;28;20596;-70
2023/05/28 02:57:54;;;;;;;26.53;15.00;;;13.10;99.90;;;;;;5094579;28;20243;-70
2023/05/28 03:00:19;;;;;;;32.50;15.10;;;13.10;99.90;;;;;;5094607;28;20172;-69
2023/05/28 03:02:45;;;;;;;30.60;14.53;;;13.00;99.90;;;;;;5094383;28;20211;-70
2023/05/28 03:05:11;;;;;;;26.07;14.53;;;13.00;99.90;;;;;;5094625;28;20164;-70
2023/05/28 03:07:36;;;;;;;24.40;14.83;;;13.00;99.90;;;;;;5094506;28;20172;-68
2023/05/28 03:10:02;;;;;;;24.63;14.70;;;13.00;99.90;;;;;;5094086;28;20168;-69
2023/05/28 03:12:27;;;;;;;26.97;14.10;;;13.00;99.90;;;;;;5094521;28;20199;-68
2023/05/28 03:14:53;;;;;;;24.03;14.37;;;13.00;99.90;;;;;;5093404;28;20164;-69
2023/05/28 03:17:19;;;;;;;34.80;15.03;;;13.00;99.90;;;;;;5094413;28;20172;-70
2023/05/28 03:19:45;;;;;;;27.20;14.37;;;13.00;99.90;;;;;;5094045;28;20172;-69
2023/05/28 03:22:10;;;;;;;29.03;13.53;;;12.90;99.90;;;;;;5094214;28;20206;-68
2023/05/28 03:24:39;;;;;;;29.53;14.40;;;12.90;99.90;;;;;;5093901;28;20517;-69
2023/05/28 03:27:05;;;;;;;25.57;14.43;;;12.90;99.90;;;;;;5094395;28;20171;-70
2023/05/28 03:29:31;;;;;;;25.03;14.27;;;12.90;99.90;;;;;;5093942;28;20179;-69
2023/05/28 03:31:57;;;;;;;31.00;14.77;;;12.90;99.90;;;;;;5093910;28;20215;-69
2023/05/28 03:34:23;;;;;;;27.17;15.00;;;12.90;99.90;;;;;;5094179;28;20175;-69
2023/05/28 03:36:49;;;;;;;32.73;14.90;;;12.90;99.90;;;;;;5093982;28;20172;-69
2023/05/28 03:39:15;;;;;;;32.57;15.67;;;12.90;99.90;;;;;;5093639;28;20240;-69
2023/05/28 03:41:41;;;;;;;27.53;14.63;;;12.80;99.90;;;;;;5093521;28;20266;-68
2023/05/28 03:44:07;;;;;;;33.33;14.97;;;12.80;99.90;;;;;;5093738;28;20631;-71
2023/05/28 03:46:33;;;;;;;27.07;14.50;;;12.80;99.90;;;;;;5093656;28;20179;-70
2023/05/28 03:48:58;;;;;;;25.90;14.93;;;12.90;99.90;;;;;;5093319;28;20595;-69
2023/05/28 03:51:25;;;;;;;24.83;13.93;;;12.90;99.90;;;;;;5093580;28;20180;-69
2023/05/28 03:53:50;;;;;;;24.73;14.87;;;12.90;99.90;;;;;;5093203;28;20241;-69
2023/05/28 03:56:18;;;;;;;24.10;14.23;;;12.90;99.90;;;;;;5093539;28;20630;-69
2023/05/28 03:58:44;;;;;;;24.87;14.03;;;13.10;99.90;;;;;;5093320;28;20171;-70
2023/05/28 04:01:10;;;;;;;23.73;14.87;;;13.20;99.90;;;;;;5093439;28;20214;-69
2023/05/28 04:03:35;;;;;;;27.27;15.13;;;13.40;99.90;;;;;;5093119;28;20174;-69
2023/05/28 04:06:02;;;;;;;31.80;14.33;;;13.50;99.90;;;;;;5093351;28;20164;-70
2023/05/28 04:08:28;;;;;;;29.67;14.03;;;13.70;99.90;;;;;;5092861;28;20176;-70
2023/05/28 04:10:53;;;;;;;23.17;13.90;;;13.90;99.90;;;;;;5093250;28;20187;-70
2023/05/28 04:13:19;;;;;;;28.20;13.83;;;14.00;99.90;;;;;;5093334;28;20271;-69
2023/05/28 04:15:45;;;;;;;25.43;13.70;;;14.10;99.90;;;;;;5093147;28;20172;-69
2023/05/28 04:18:10;;;;;;;21.07;13.13;;;14.30;99.90;;;;;;5093428;28;20266;-69
2023/05/28 04:20:36;;;;;;;25.37;13.63;;;14.60;99.90;;;;;;5093006;28;20599;-71
2023/05/28 04:23:03;;;;;;;27.37;13.87;;;15.00;99.90;;;;;;5092792;28;20207;-70
2023/05/28 04:25:28;;;;;;;26.70;13.97;;;15.50;90.00;;;;;;5092951;28;20222;-69
2023/05/28 04:27:55;;;;;;;20.63;12.53;;;15.90;64.80;;;;;;5093029;28;20176;-69
2023/05/28 04:30:22;;;;;;;24.70;13.27;;;16.50;53.60;;;;;;5093185;28;20174;-69
2023/05/28 04:32:51;;;;;;;19.73;12.90;;;16.80;29.00;;;;;;5091576;28;20716;-68
2023/05/28 04:35:17;;;;;;;18.33;12.10;;;17.00;24.80;;;;;;5093032;28;20172;-68
2023/05/28 04:37:44;;;;;;;21.73;12.30;;;17.60;12.80;;;;;;5092449;28;20168;-68
2023/05/28 04:40:13;;;;;;;21.58;12.55;;;18.40;1.00;;;;;;5092888;28;20657;-68
2023/05/28 04:42:42;;;;;;;19.92;12.48;;;18.90;1.00;;;;;;5092624;28;20264;-69
2023/05/28 04:45:09;;;;;;;19.42;12.15;;;19.00;1.00;;;;;;5093065;28;20168;-69
2023/05/28 04:47:36;;;;;;;18.85;12.10;;;18.80;1.00;;;;;;5092938;28;20556;-69
2023/05/28 04:50:04;;;;;;;18.83;12.23;;;19.70;1.00;;;;;;5092250;28;20219;-70
2023/05/28 04:52:35;;;;;;;22.00;12.70;;;20.20;1.00;;;;;;5092617;28;20176;-70
2023/05/28 04:55:04;;;;;;;19.67;11.80;;;20.00;1.00;;;;;;5092901;28;20179;-70
2023/05/28 04:57:30;;;;;;;22.52;11.70;;;20.10;1.00;;;;;;5092963;28;20182;-71
2023/05/28 04:59:56;;;;;;;20.60;11.70;;;20.20;1.00;;;;;;5092771;28;20167;-70
2023/05/28 05:02:21;;;;;;;17.80;11.60;;;20.60;1.00;;;;;;5092618;28;20207;-69
2023/05/28 05:04:47;;;;;;;16.98;11.77;;;21.00;1.00;;;;;;5092732;28;20213;-70
2023/05/28 05:07:13;;;;;;;15.63;11.43;;;21.20;1.00;;;;;;5092306;28;20172;-70
2023/05/28 05:09:39;;;;;;;20.77;11.15;;;21.40;99.90;;;;;;5092516;28;20175;-70
2023/05/28 05:12:06;;;;;;;15.95;11.38;;;21.10;99.90;;;;;;5092197;28;20175;-70
2023/05/28 05:14:32;;;;;;;17.55;11.27;;;20.30;1.00;;;;;;5093023;28;20164;-69
2023/05/28 05:16:58;;;;;;;17.92;11.27;;;20.60;1.00;;;;;;5092583;28;20522;-70
2023/05/28 05:19:25;;;;;;;17.30;11.38;;;21.00;1.00;;;;;;5092241;28;20188;-70
2023/05/28 05:21:51;;;;;;;21.73;11.88;;;21.20;99.90;;;;;;5092106;28;20254;-70
2023/05/28 05:24:16;;;;;;;19.58;11.05;;;21.20;99.90;;;;;;5092376;28;20658;-72
2023/05/28 05:26:42;;;;;;;18.90;11.82;;;21.80;99.90;;;;;;5092122;28;20180;-72
2023/05/28 05:29:07;;;;;;;18.73;11.88;;;21.70;99.90;;;;;;5092438;28;20172;-72
2023/05/28 05:31:33;;;;;;;21.52;11.65;;;22.60;1.00;;;;;;5092602;28;20179;-72
2023/05/28 05:33:59;;;;;;;21.25;11.90;;;23.40;1.00;;;;;;5092046;28;20223;-71
2023/05/28 05:36:24;;;;;;;16.10;11.85;;;23.60;1.00;;;;;;5092639;28;20191;-71
2023/05/28 05:38:50;;;;;;;19.73;11.23;;;23.90;14.50;;;;;;5095911;28;20638;-71
2023/05/28 05:41:16;;;;;;;16.23;11.38;;;24.30;99.90;;;;;;5095929;28;20302;-71
2023/05/28 05:43:41;;;;;;;18.80;11.68;;;24.00;64.70;;;;;;5096098;28;20168;-71
2023/05/28 05:46:07;;;;;;;14.48;10.60;;;24.60;1.00;;;;;;5095797;28;20353;-72
2023/05/28 05:48:33;;;;;;;16.15;11.55;;;24.60;99.90;;;;;;5095773;28;20172;-71
2023/05/28 05:51:00;;;;;;;15.20;11.20;;;24.80;1.00;;;;;;5095711;28;20168;-72
2023/05/28 05:53:26;;;;;;;19.40;11.55;;;24.00;99.90;;;;;;5095902;28;20240;-72
2023/05/28 05:55:52;;;;;;;13.82;10.30;;;24.10;99.90;;;;;;5095584;28;20713;-72
2023/05/28 05:58:18;;;;;;;14.38;10.38;;;24.10;1.00;;;;;;5095479;28;20179;-72
2023/05/28 06:00:44;;;;;;;13.90;10.65;;;25.20;99.90;;;;;;5095881;28;20253;-73
2023/05/28 06:03:09;;;;;;;16.52;10.57;;;25.70;1.00;;;;;;5095744;28;20253;-72
2023/05/28 06:05:35;;;;;;;17.45;10.73;;;24.70;1.00;;;;;;5095357;28;20164;-72
2023/05/28 06:08:04;;;;;;;16.45;10.52;;;24.70;99.90;;;;;;5095628;28;20530;-71
2023/05/28 06:10:30;;;;;;;17.50;10.98;;;24.30;1.00;;;;;;5095743;28;20168;-71
2023/05/28 06:12:56;;;;;;;15.95;10.85;;;23.60;99.90;;;;;;5095592;28;20168;-71
2023/05/28 06:15:22;;;;;;;14.35;9.95;;;23.40;1.00;;;;;;5095396;28;20254;-72
2023/05/28 06:17:48;;;;;;;32.10;12.40;;;23.80;1.00;;;;;;5095864;28;20168;-73
2023/05/28 06:20:15;;;;;;;17.35;10.65;;;24.60;99.90;;;;;;5094858;28;20175;-73
2023/05/28 06:22:40;;;;;;;13.25;10.15;;;24.70;99.90;;;;;;5094931;28;20283;-73
2023/05/28 06:25:08;;;;;;;13.73;9.80;;;25.50;1.00;;;;;;5095341;28;20622;-72
2023/05/28 06:27:35;;;;;;;14.13;10.05;;;25.10;1.00;;;;;;5094480;28;20176;-73
2023/05/28 06:30:02;;;;;;;15.07;10.40;;;26.10;99.90;;;;;;5095232;28;20717;-73
2023/05/28 06:32:29;;;;;;;14.48;10.10;;;25.90;99.90;;;;;;5094696;28;20252;-73
2023/05/28 06:34:55;;;;;;;11.77;10.23;;;26.00;99.90;;;;;;5095163;28;20175;-72
2023/05/28 06:37:21;;;;;;;15.07;10.48;;;26.50;1.00;;;;;;5094253;28;20168;-73
2023/05/28 06:39:46;;;;;;;15.23;10.25;;;26.20;19.70;;;;;;5094575;28;20246;-73
2023/05/28 06:42:12;;;;;;;12.90;9.75;;;26.70;13.90;;;;;;5094674;28;20207;-73
2023/05/28 06:44:37;;;;;;;11.48;9.32;;;28.40;1.00;;;;;;5094597;28;20520;-72
2023/05/28 06:47:03;;;;;;;15.02;10.07;;;28.10;1.00;;;;;;5094801;28;20222;-73
2023/05/28 06:49:29;;;;;;;13.98;9.98;;;28.60;1.00;;;;;;5094209;28;20655;-74
2023/05/28 06:51:55;;;;;;;13.65;9.40;;;29.00;99.90;;;;;;5094430;28;20712;-73
2023/05/28 06:54:21;;;;;;;11.63;9.43;;;28.40;99.90;;;;;;5094461;28;20176;-72
2023/05/28 06:56:47;;;;;;;12.98;9.40;;;29.60;99.90;;;;;;5094419;28;20175;-73
2023/05/28 06:59:12;;;;;;;14.07;9.68;;;28.80;99.90;;;;;;5094324;28;20237;-73
2023/05/28 07:01:38;;;;;;;15.88;9.38;;;28.20;99.90;;;;;;5094315;28;20218;-73
2023/05/28 07:04:03;;;;;;;11.57;8.73;;;29.40;99.90;;;;;;5094295;28;20615;-73
2023/05/28 07:06:30;;;;;;;11.50;8.98;;;29.30;99.90;;;;;;5094239;28;20179;-72
2023/05/28 07:08:55;;;;;;;12.38;8.85;;;29.30;99.90;;;;;;5094590;28;20176;-73
2023/05/28 07:11:21;;;;;;;11.40;9.15;;;29.00;99.90;;;;;;5093976;28;20172;-73
2023/05/28 07:13:47;;;;;;;12.55;8.80;;;29.80;99.90;;;;;;5094141;28;20573;-73
2023/05/28 07:16:13;;;;;;;11.63;8.93;;;29.60;99.90;;;;;;5093938;28;20172;-73
2023/05/28 07:18:39;;;;;;;10.10;8.23;;;29.00;99.90;;;;;;5094237;28;20222;-73
2023/05/28 07:21:07;;;;;;;11.57;8.55;;;28.90;99.90;;;;;;5092312;28;20168;-74
2023/05/28 07:23:33;;;;;;;10.77;8.45;;;29.50;99.90;;;;;;5093961;28;20722;-73
2023/05/28 07:25:59;;;;;;;15.10;8.93;;;28.60;99.90;;;;;;5093656;28;20167;-73
2023/05/28 07:28:25;;;;;;;11.43;9.07;;;28.50;99.90;;;;;;5093769;28;20305;-73
2023/05/28 07:30:51;;;;;;;13.63;8.95;;;27.50;1.00;;;;;;5093722;28;20661;-73
2023/05/28 07:33:16;;;;;;;12.77;9.23;;;28.20;1.00;;;;;;5093863;28;20230;-73
2023/05/28 07:35:42;;;;;;;11.77;8.82;;;28.90;99.90;;;;;;5093458;28;20171;-74
2023/05/28 07:38:10;;;;;;;13.73;8.00;;;28.70;99.90;;;;;;5093686;28;20168;-74
2023/05/28 07:40:36;;;;;;;12.57;8.65;;;28.70;99.90;;;;;;5093921;28;20175;-73
2023/05/28 07:43:01;;;;;;;12.82;8.02;;;28.00;99.90;;;;;;5093752;28;20204;-74
2023/05/28 07:45:27;;;;;;;14.88;8.38;;;28.40;99.90;;;;;;5093406;28;20567;-74
2023/05/28 07:47:53;;;;;;;9.32;7.65;;;28.90;99.90;;;;;;5091876;28;20203;-74
2023/05/28 07:50:18;;;;;;;13.25;9.40;;;28.50;99.90;;;;;;5093373;28;20206;-73
2023/05/28 07:52:45;;;;;;;13.25;8.55;;;27.40;1.00;;;;;;5093764;28;20196;-72
2023/05/28 07:55:11;;;;;;;13.20;8.48;;;26.60;1.00;;;;;;5093635;28;20650;-72
2023/05/28 07:57:37;;;;;;;12.63;8.27;;;25.50;99.90;;;;;;5093130;28;20171;-73
2023/05/28 08:00:06;;;;;;;10.73;8.50;;;26.10;99.90;;;;;;5092451;28;20179;-74
2023/05/28 08:02:32;;;;;;;10.35;8.10;;;26.00;99.90;;;;;;5093083;28;20237;-74
2023/05/28 08:04:59;;;;;;;12.85;7.90;;;26.30;15.10;;;;;;5093634;28;20179;-73
2023/05/28 08:07:24;;;;;;;11.63;7.35;;;26.10;99.90;;;;;;5093110;28;20176;-74
2023/05/28 08:09:50;;;;;;;12.85;7.40;;;26.80;1.00;;;;;;5093206;28;20285;-73
2023/05/28 08:12:16;;;;;;;10.65;6.35;;;27.10;1.00;;;;;;5093346;28;20213;-74
2023/05/28 08:14:41;;;;;;;9.15;7.15;;;27.60;1.00;;;;;;5092628;28;20168;-74
2023/05/28 08:17:07;;;;;;;11.98;7.13;;;27.10;1.00;;;;;;5092838;28;20259;-73
2023/05/28 08:19:33;;;;;;;8.13;6.68;;;25.90;1.00;;;;;;5092664;28;20191;-74
2023/05/28 08:21:58;;;;;;;12.10;7.63;;;26.20;1.00;;;;;;5093944;28;20211;-73
2023/05/28 08:24:24;;;;;;;10.82;6.70;;;26.00;1.00;;;;;;5092778;28;20164;-74
2023/05/28 08:26:50;;;;;;;8.40;7.00;;;26.30;1.00;;;;;;5092935;28;20167;-74
2023/05/28 08:29:15;;;;;;;10.07;7.20;;;26.70;1.00;;;;;;5092355;28;20168;-74
2023/05/28 08:31:41;;;;;;;10.68;6.85;;;27.60;1.00;;;;;;5092890;28;20695;-76
2023/05/28 08:34:07;;;;;;;11.50;7.40;;;28.40;1.00;;;;;;5092594;28;20190;-74
2023/05/28 08:36:32;;;;;;;13.82;7.70;;;29.00;99.90;;;;;;5093079;28;20225;-74
2023/05/28 08:38:58;;;;;;;7.32;6.53;;;28.20;99.90;;;;;;5092759;28;20167;-74
2023/05/28 08:41:25;;;;;;;10.75;6.93;;;28.50;1.00;;;;;;5092500;28;20611;-74
2023/05/28 08:43:51;;;;;;;10.88;6.88;;;28.80;99.90;;;;;;5092812;28;20210;-74
2023/05/28 08:46:18;;;;;;;8.18;6.70;;;28.80;99.90;;;;;;5091978;28;20544;-75
2023/05/28 08:48:45;;;;;;;10.07;6.03;;;28.10;99.90;;;;;;5092448;28;20203;-74
2023/05/28 08:51:11;;;;;;;8.48;6.30;;;28.10;99.90;;;;;;5092676;28;20250;-74
2023/05/28 08:53:43;;;;;;;7.70;6.07;;;28.20;99.90;;;;;;5092651;28;20176;-75
2023/05/28 08:56:09;;;;;;;9.48;6.25;;;28.60;99.90;;;;;;5092838;28;20172;-74
2023/05/28 08:58:38;;;;;;;9.20;6.00;;;28.70;99.90;;;;;;5091928;28;20176;-76
2023/05/28 09:01:08;;;;;;;10.75;6.20;;;27.80;1.00;;;;;;5092402;28;20207;-75
2023/05/28 09:03:34;;;;;;;13.23;6.32;;;28.10;99.90;;;;;;5091330;28;20160;-75
2023/05/28 09:06:00;;;;;;;11.20;6.45;;;26.80;1.00;;;;;;5092413;28;20252;-75
2023/05/28 09:08:25;;;;;;;9.60;6.53;;;25.90;1.00;;;;;;5092642;28;20233;-75
2023/05/28 09:10:54;;;;;;;9.57;6.00;;;26.40;1.00;;;;;;5093361;28;20192;-76
2023/05/28 09:13:20;;;;;;;9.30;6.05;;;27.30;1.00;;;;;;5096066;28;20164;-74
2023/05/28 09:15:56;;;;;;;12.55;6.13;;;28.20;1.00;;;;;;5096792;28;20175;-75
2023/05/28 09:18:22;;;;;;;9.45;6.05;;;26.60;1.00;;;;;;5096480;28;20179;-76
2023/05/28 09:20:48;;;;;;;10.50;6.03;;;25.90;1.00;;;;;;5096456;28;20176;-74
2023/05/28 09:23:17;;;;;;;12.88;6.38;;;26.20;1.00;;;;;;5096334;28;20309;-76
2023/05/28 09:25:44;;;;;;;9.95;6.05;;;26.50;1.00;;;;;;5096489;28;20156;-74
2023/05/28 09:28:13;;;;;;;12.75;6.10;;;26.20;1.00;;;;;;5095264;28;20177;-75
2023/05/28 09:30:39;;;;;;;10.52;6.20;;;26.20;1.00;;;;;;5095903;28;20626;-74
2023/05/28 09:33:07;;;;;;;11.40;6.50;;;26.50;1.00;;;;;;5096110;28;20241;-75
2023/05/28 09:35:33;;;;;;;8.07;5.82;;;26.80;1.00;;;;;;5096197;28;20172;-75
2023/05/28 09:38:09;;;;;;;8.25;5.80;;;27.20;1.00;;;;;;5096075;28;20168;-75
2023/05/28 09:40:41;;;;;;;8.25;5.72;;;28.10;1.00;;;;;;5095582;28;20179;-75
2023/05/28 09:43:08;;;;;;;8.95;5.95;;;28.70;99.90;;;;;;5095835;28;20211;-75
2023/05/28 09:45:34;;;;;;;8.68;5.60;;;29.30;99.90;;;;;;5095844;28;20195;-75
2023/05/28 09:48:00;;;;;;;11.00;5.78;;;29.80;99.90;;;;;;5095528;28;20172;-74
2023/05/28 09:50:26;;;;;;;7.88;5.43;;;29.90;99.90;;;;;;5095802;28;20168;-74
2023/05/28 09:52:55;;;;;;;13.52;5.85;;;30.70;99.90;;;;;;5096119;28;20255;-75
2023/05/28 09:55:25;;;;;;;8.65;5.40;;;28.50;99.90;;;;;;5095215;28;20163;-74
2023/05/28 09:58:11;;;;;;;8.90;5.60;;;27.80;99.90;;;;;;5094981;28;20255;-73
2023/05/28 10:00:52;;;;;;;8.05;5.60;;;28.30;99.90;;;;;;5095424;28;20228;-74
2023/05/28 10:03:29;;;;;;;6.85;5.07;;;28.40;99.90;;;;;;5095106;28;20211;-74
2023/05/28 10:06:01;;;;;;;9.13;5.72;;;28.20;99.90;;;;;;5095287;28;20187;-74
2023/05/28 10:08:27;;;;;;;10.18;5.70;;;28.60;99.90;;;;;;5095063;28;20172;-73
2023/05/28 10:10:54;;;;;;;10.40;5.40;;;28.30;99.90;;;;;;5095306;28;20232;-74
2023/05/28 10:13:22;;;;;;;8.02;5.10;;;28.30;99.90;;;;;;5095018;28;20629;-73
2023/05/28 10:15:52;;;;;;;8.73;5.88;;;28.30;99.90;;;;;;5095055;28;20168;-73
2023/05/28 10:18:19;;;;;;;8.55;5.60;;;28.30;99.90;;;;;;5095324;28;20757;-73
2023/05/28 10:20:46;;;;;;;9.43;6.15;;;27.60;99.90;;;;;;5095136;28;20665;-72
2023/05/28 10:23:13;;;;;;;9.70;5.85;;;27.10;99.90;;;;;;5094599;28;20215;-73
2023/05/28 10:25:39;;;;;;;11.00;6.18;;;26.80;99.90;;;;;;5095019;28;20179;-73
2023/05/28 10:28:05;;;;;;;8.73;6.00;;;26.20;1.00;;;;;;5095169;28;20217;-72
2023/05/28 10:30:36;;;;;;;6.63;5.32;;;25.80;1.00;;;;;;5094927;28;20176;-72
2023/05/28 10:33:08;;;;;;;10.82;5.75;;;26.50;1.00;;;;;;5095165;28;20216;-72
2023/05/28 10:35:35;;;;;;;7.55;5.85;;;27.30;99.90;;;;;;5093590;28;20723;-73
2023/05/28 10:38:05;;;;;;;7.68;5.20;;;27.50;99.90;;;;;;5094959;28;20160;-73
2023/05/28 10:40:33;;;;;;;9.00;5.60;;;27.90;99.90;;;;;;5094902;28;20172;-73
2023/05/28 10:42:59;;;;;;;7.15;5.10;;;28.60;99.90;;;;;;5093865;28;20208;-73
2023/05/28 10:45:38;;;;;;;8.88;5.22;;;27.80;99.90;;;;;;5094932;28;20209;-73
2023/05/28 10:48:04;;;;;;;10.60;5.18;;;28.90;99.90;;;;;;5094654;28;20214;-73
2023/05/28 10:50:30;;;;;;;9.23;5.80;;;28.90;99.90;;;;;;5094269;28;20195;-73
2023/05/28 10:53:17;;;;;;;10.10;6.03;;;28.30;99.90;;;;;;5094893;28;20172;-74
2023/05/28 10:55:50;;;;;;;8.45;5.88;;;27.50;99.90;;;;;;5094389;28;20217;-73
2023/05/28 10:58:35;;;;;;;9.85;5.50;;;27.40;99.90;;;;;;5094012;28;20250;-72
2023/05/28 11:01:05;;;;;;;8.98;5.68;;;27.50;99.90;;;;;;5093815;28;20195;-73
2023/05/28 11:03:44;;;;;;;9.88;5.65;;;28.10;99.90;;;;;;5094177;28;20283;-75
2023/05/28 11:06:11;;;;;;;10.25;5.13;;;27.90;99.90;;;;;;5094564;28;20209;-75
2023/05/28 11:08:48;;;;;;;9.00;5.43;;;28.80;99.90;;;;;;5093591;28;20172;-74
2023/05/28 11:11:15;;;;;;;10.70;5.93;;;29.40;99.90;;;;;;5095213;28;20168;-75
2023/05/28 11:13:43;;;;;;;9.77;5.85;;;28.60;99.90;;;;;;5094471;28;20172;-75
2023/05/28 11:16:13;;;;;;;9.68;5.70;;;28.20;99.90;;;;;;5094276;28;20190;-74
2023/05/28 11:18:38;;;;;;;10.48;5.50;;;28.10;99.90;;;;;;5093723;28;20172;-75
2023/05/28 11:21:07;;;;;;;8.43;5.05;;;27.60;99.90;;;;;;5094479;28;20241;-74
2023/05/28 11:23:35;;;;;;;7.63;4.85;;;27.50;99.90;;;;;;5093835;28;20186;-74
2023/05/28 11:26:00;;;;;;;9.23;5.72;;;28.20;99.90;;;;;;5094030;28;20271;-75
2023/05/28 11:28:26;;;;;;;7.32;4.80;;;28.00;99.90;;;;;;5093543;28;20638;-74
2023/05/28 11:30:55;;;;;;;8.65;5.45;;;27.40;99.90;;;;;;5094042;28;20160;-74
2023/05/28 11:33:21;;;;;;;7.97;5.45;;;26.80;99.90;;;;;;5093759;28;20219;-74
2023/05/28 11:35:56;;;;;;;8.05;5.07;;;26.80;99.90;;;;;;5093091;28;20535;-74
2023/05/28 11:38:22;;;;;;;8.77;5.72;;;26.40;99.90;;;;;;5093287;28;20164;-74
2023/05/28 11:40:47;;;;;;;6.13;5.03;;;25.90;99.90;;;;;;5093843;28;20171;-73
2023/05/28 11:43:13;;;;;;;7.30;5.10;;;26.40;99.90;;;;;;5094132;28;20203;-73
2023/05/28 11:45:39;;;;;;;6.90;5.47;;;27.00;99.90;;;;;;5093336;28;20677;-74
2023/05/28 11:48:12;;;;;;;8.88;5.32;;;26.10;99.90;;;;;;5093678;28;20176;-74
2023/05/28 11:50:37;;;;;;;9.05;6.15;;;25.40;99.90;;;;;;5092980;28;20247;-74
2023/05/28 11:53:03;;;;;;;8.05;5.93;;;25.50;99.90;;;;;;5093113;28;20313;-74
2023/05/28 11:55:29;;;;;;;10.02;6.05;;;25.50;1.00;;;;;;5093787;28;20589;-74
2023/05/28 11:57:55;;;;;;;7.82;5.78;;;25.60;1.00;;;;;;5093051;28;20176;-73
2023/05/28 12:00:31;;;;;;;8.20;6.13;;;24.90;1.00;;;;;;5092605;28;20191;-74
2023/05/28 12:02:57;;;;;;;9.85;5.30;;;25.20;1.00;;;;;;5093333;28;20700;-73
2023/05/28 12:05:23;;;;;;;8.07;5.78;;;24.90;1.00;;;;;;5093117;28;20247;-73
2023/05/28 12:07:53;;;;;;;10.43;5.72;;;24.30;1.00;;;;;;5092968;28;20182;-72
2023/05/28 12:10:21;;;;;;;9.52;5.40;;;24.20;99.90;;;;;;5092341;28;20194;-72
2023/05/28 12:12:52;;;;;;;8.32;5.60;;;24.50;1.00;;;;;;5092709;28;20172;-72
2023/05/28 12:15:24;;;;;;;6.50;5.45;;;24.50;1.00;;;;;;5093307;28;20221;-73
2023/05/28 12:17:56;;;;;;;9.38;5.57;;;24.80;1.00;;;;;;5093291;28;20168;-73
2023/05/28 12:20:22;;;;;;;7.00;5.43;;;25.00;1.00;;;;;;5092393;28;20164;-72
2023/05/28 12:23:04;;;;;;;9.60;5.72;;;25.20;1.00;;;;;;5091283;28;20204;-73
2023/05/28 12:25:43;;;;;;;6.60;5.18;;;25.30;1.00;;;;;;5092137;28;20207;-73
2023/05/28 12:28:10;;;;;;;8.77;5.57;;;25.50;99.90;;;;;;5092952;28;20198;-73
2023/05/28 12:30:37;;;;;;;9.52;5.55;;;25.60;1.00;;;;;;5092854;28;20214;-73
2023/05/28 12:33:03;;;;;;;9.82;5.90;;;25.80;1.00;;;;;;5092841;28;20303;-73
2023/05/28 12:35:29;;;;;;;8.95;5.85;;;25.40;1.00;;;;;;5092021;28;20667;-74
2023/05/28 12:37:54;;;;;;;11.18;5.53;;;25.60;1.00;;;;;;5092787;28;20172;-73